This is the latest recevied weather packets stored in our database for station/object KJ5FA-10. If no packets are shown the sender has not sent any weather packets the latest 10 day(s).
| Time | Temp. | Humidity | Pressure | Rain* | Wind** | Luminosity | Snow |
|---|---|---|---|---|---|---|---|
| 1787976802 | 24.44° C | 73% | 1019.5 hPa | 0 mm | - | - | - |
| 1787975901 | 25° C | 73% | 1019.3 hPa | 0 mm | - | - | - |
| 1787975001 | 24.44° C | 75% | 1019.3 hPa | 0 mm | - | - | - |
| 1787974101 | 24.44° C | 76% | 1019 hPa | 0 mm | - | - | - |
| 1787973201 | 25° C | 75% | 1019 hPa | 0 mm | - | - | - |
| 1787972301 | 25° C | 74% | 1018.8 hPa | 0 mm | - | - | - |
| 1787971401 | 25.56° C | 73% | 1018.7 hPa | 0 mm | - | - | - |
| 1787970502 | 25.56° C | 72% | 1018.3 hPa | 0 mm | - | - | - |
| 1787969601 | 25.56° C | 70% | 1018.1 hPa | 0 mm | - | - | - |
| 1787968701 | 26.67° C | 67% | 1018 hPa | 0 mm | - | - | - |
| 1787967801 | 27.22° C | 64% | 1017.8 hPa | 0 mm | - | - | - |
| 1787966901 | 27.78° C | 62% | 1017.7 hPa | 0 mm | - | - | - |
| 1787966001 | 27.78° C | 59% | 1017.5 hPa | 0 mm | - | - | - |
| 1787965103 | 28.89° C | 56% | 1017.4 hPa | 0 mm | - | - | - |
| 1787964201 | 29.44° C | 53% | 1017.3 hPa | 0 mm | - | - | - |
| 1787963301 | 30° C | 50% | 1017.2 hPa | 0 mm | - | - | - |
| 1787962403 | 30.56° C | 49% | 1017.1 hPa | 0 mm | - | - | - |
| 1787961502 | 30.56° C | 48% | 1017.4 hPa | 0 mm | - | - | - |
| 1787960602 | 31.11° C | 47% | 1017.3 hPa | 0 mm | - | - | - |
| 1787959701 | 31.11° C | 47% | 1017.2 hPa | 0 mm | - | - | - |
| 1787958801 | 31.67° C | 46% | 1017.2 hPa | 0 mm | - | - | - |
| 1787957902 | 31.67° C | 46% | 1017.4 hPa | 0 mm | - | - | - |
| 1787957002 | 31.67° C | 45% | 1017.4 hPa | 0 mm | - | - | - |
| 1787956102 | 32.78° C | 44% | 1017.4 hPa | 0 mm | - | - | - |
| 1787955201 | 33.33° C | 43% | 1017.3 hPa | 0 mm | - | - | - |
* Rain latest hour (hover to see other rain measurements)
** Current wind speed in m/s (hover to see current wind gust speed)